»·PEaware :: N210AR KBUR-KSNA

N210AR :: KBUR-KSNA

FLIGHT INFORMATION

Flight Status: Arrived
Operator: Privately registered:
United States
More flights under this callsign
Pilot: Max S. (16657)
Aircraft: CESSNA 172 SKYHAWK
(C172)
More flights by this aircraft type
Origin: KBUR Bob Hope-Burbank
United States
Destination: KSNA John Wayne-Orange Co
United States
More flights between these airports :: More routes between these airports
Route: SMO VPLSR VPLHP
File this flight plan on PilotEdge
Remarks:
Altitude:
(Current/Filed)
2,500ft
Speed:
(Current/Filed)
100kts
Departed: 03-Jun-20 07:41 AM
Arrived: 03-Jun-20 08:36 AM
Distance/Time
Traveled:
40nm/0:55
Distance/Time
To Go:
Arrived

Flight Plot

Page will automatically refresh every two minutes.

Flight plan parsing failed; only flown route is shown


Map Options




Map Legend


Flown Route
Filed Route
Departure Airport
Arrival Airport
Navaid (VOR, NDB)
Fix

Horizontal Profiles

Position Reports

Time Latitude Longitude Heading Altitude Ground
Speed
03-Jun-20 07:10 34.196339 -118.367564 359 725ft 0kts
03-Jun-20 07:11 34.196339 -118.367564 359 725ft 0kts
03-Jun-20 07:12 34.196339 -118.367564 359 725ft 0kts
03-Jun-20 07:13 34.196339 -118.367564 359 725ft 0kts
03-Jun-20 07:14 34.196339 -118.367564 359 725ft 0kts
03-Jun-20 07:15 34.196339 -118.367564 359 725ft 0kts
03-Jun-20 07:16 34.196339 -118.367564 359 725ft 0kts
03-Jun-20 07:17 34.196339 -118.367564 359 725ft 0kts
03-Jun-20 07:18 34.196339 -118.367564 358 725ft 0kts
03-Jun-20 07:19 34.196339 -118.367564 358 725ft 0kts
03-Jun-20 07:20 34.196339 -118.367564 358 725ft 0kts
03-Jun-20 07:21 34.196339 -118.367564 358 725ft 0kts
03-Jun-20 07:22 34.196339 -118.367564 358 725ft 0kts
03-Jun-20 07:23 34.196339 -118.367564 358 725ft 0kts
03-Jun-20 07:24 34.196339 -118.367564 358 725ft 0kts
03-Jun-20 07:25 34.196339 -118.367564 358 725ft 0kts
03-Jun-20 07:26 34.196339 -118.367564 358 725ft 0kts
03-Jun-20 07:27 34.196912 -118.366596 61 724ft 6kts
03-Jun-20 07:28 34.196901 -118.363949 93 721ft 12kts
03-Jun-20 07:29 34.196936 -118.360351 52 718ft 1kts
03-Jun-20 07:30 34.196776 -118.358290 89 713ft 2kts
03-Jun-20 07:31 34.197009 -118.357983 1 713ft 0kts
03-Jun-20 07:32 34.197009 -118.357983 1 713ft 0kts
03-Jun-20 07:33 34.199682 -118.358132 346 722ft 15kts
03-Jun-20 07:34 34.203384 -118.359145 345 740ft 14kts
03-Jun-20 07:35 34.205958 -118.359859 347 753ft 19kts
03-Jun-20 07:36 34.210535 -118.361124 346 774ft 15kts
03-Jun-20 07:37 34.211908 -118.361389 30 778ft 0kts
03-Jun-20 07:38 34.211908 -118.361389 30 778ft 0kts
03-Jun-20 07:39 34.209983 -118.359840 165 770ft 27kts
03-Jun-20 07:40 34.196045 -118.355812 165 1086ft 88kts
03-Jun-20 07:41 34.178819 -118.353908 190 1711ft 93kts
03-Jun-20 07:43 34.160945 -118.367110 218 2154ft 109kts
03-Jun-20 07:44 34.140654 -118.384722 214 2522ft 120kts
03-Jun-20 07:45 34.116111 -118.404693 212 2386ft 113kts
03-Jun-20 07:46 34.098579 -118.418162 213 2470ft 100kts
03-Jun-20 07:47 34.082250 -118.428078 207 2461ft 99kts
03-Jun-20 07:48 34.066260 -118.435497 197 2416ft 101kts
03-Jun-20 07:49 34.051531 -118.441235 195 2325ft 106kts
03-Jun-20 07:50 34.035891 -118.446918 199 2404ft 98kts
03-Jun-20 07:51 34.017104 -118.455220 202 2456ft 93kts
03-Jun-20 07:52 34.007166 -118.455244 145 2480ft 94kts
03-Jun-20 07:53 34.000481 -118.447861 143 2443ft 99kts
03-Jun-20 07:54 33.992890 -118.440958 143 2507ft 93kts
03-Jun-20 07:55 33.983592 -118.430056 97 2499ft 97kts
03-Jun-20 07:56 33.997432 -118.428915 272 2367ft 106kts
03-Jun-20 07:57 33.990499 -118.437583 173 2434ft 97kts
03-Jun-20 07:58 33.991797 -118.423599 355 2477ft 92kts
03-Jun-20 07:58 33.993977 -118.434383 235 2482ft 93kts
03-Jun-20 08:00 33.986808 -118.446119 232 2508ft 94kts
03-Jun-20 08:01 33.985299 -118.458419 359 2642ft 80kts
03-Jun-20 08:01 33.990798 -118.450252 83 2627ft 86kts
03-Jun-20 08:03 33.984766 -118.436640 140 2511ft 93kts
03-Jun-20 08:03 33.977043 -118.427947 144 2460ft 90kts
03-Jun-20 08:04 33.966727 -118.418631 143 2523ft 94kts
03-Jun-20 08:06 33.951740 -118.404719 142 2512ft 126kts
03-Jun-20 08:06 33.938540 -118.392534 142 2450ft 133kts
03-Jun-20 08:07 33.916324 -118.374659 147 2499ft 131kts
03-Jun-20 08:08 33.891832 -118.359316 156 2517ft 132kts
03-Jun-20 08:09 33.866484 -118.346979 160 2562ft 132kts
03-Jun-20 08:10 33.841292 -118.334479 152 2495ft 132kts
03-Jun-20 08:11 33.817900 -118.319334 152 2528ft 129kts
03-Jun-20 08:12 33.794375 -118.303803 150 2522ft 112kts
03-Jun-20 08:13 33.770161 -118.287037 152 2464ft 113kts
03-Jun-20 08:14 33.750510 -118.266906 114 2483ft 110kts
03-Jun-20 08:15 33.741075 -118.233841 105 2487ft 113kts
03-Jun-20 08:16 33.740294 -118.229663 100 2453ft 116kts
03-Jun-20 08:17 33.737198 -118.214696 112 2162ft 127kts
03-Jun-20 08:18 33.735568 -118.209585 110 2157ft 123kts
03-Jun-20 08:19 33.731973 -118.196241 108 1982ft 128kts
03-Jun-20 08:20 33.714959 -118.170539 139 1555ft 134kts
03-Jun-20 08:21 33.703556 -118.152578 111 1862ft 105kts
03-Jun-20 08:22 33.710956 -118.121815 93 2172ft 115kts
03-Jun-20 08:23 33.707263 -118.083091 86 2325ft 115kts
03-Jun-20 08:24 33.703944 -118.046620 91 2728ft 103kts
03-Jun-20 08:25 33.710948 -118.012856 71 2607ft 129kts
03-Jun-20 08:26 33.708762 -117.977315 110 2347ft 126kts
03-Jun-20 08:27 33.695958 -117.941695 118 1503ft 136kts
03-Jun-20 08:28 33.684780 -117.913056 110 1071ft 93kts
03-Jun-20 08:29 33.679572 -117.893534 105 1045ft 84kts
03-Jun-20 08:30 33.685322 -117.879583 25 1029ft 78kts
03-Jun-20 08:31 33.696519 -117.873665 22 1035ft 65kts
03-Jun-20 08:32 33.700054 -117.861609 119 753ft 67kts
03-Jun-20 08:33 33.689410 -117.860227 208 251ft 64kts
03-Jun-20 08:34 33.680042 -117.866066 207 88ft 48kts
03-Jun-20 08:35 33.673728 -117.870102 209 60ft 31kts
03-Jun-20 08:36 33.669686 -117.872095 157 60ft 13kts
03-Jun-20 08:37 33.669186 -117.871646 125 60ft 5kts
03-Jun-20 08:38 33.666948 -117.873089 236 60ft 1kts
03-Jun-20 08:39 33.665192 -117.874245 215 60ft 7kts
03-Jun-20 08:40 33.664383 -117.874489 31 60ft 11kts
03-Jun-20 08:41 33.665116 -117.873824 40 60ft 0kts

Navigation Log

Ident Type
Flight plan parsing failed, navigation log unavailable